Погода Тимотеона 2 недели

Минас-Жерайс, Бразилия

15 - 27 июля
  • 15июля
    Сегодня
    +14°
    +28°
    Небольшая облачность
    ВремяПогодаТемператураВлажностьДавлениеВетер, м/сВероятность осадков
    00:00Ясно и безоблачно+13°C72 %730 мм0.9 м/с5 %
    03:00Ясно и безоблачно+12°C76 %730 мм0.7 м/с5 %
    06:00Ясно и безоблачно+13°C81 %730 мм0.6 м/с5 %
    09:00Ясно и безоблачно+20°C66 %732 мм1.8 м/с5 %
    12:00Ясно и безоблачно+25°C46 %732 мм2.2 м/с5 %
    15:00Небольшая облачность+27°C38 %731 мм1.3 м/с5 %
    18:00Ясно и безоблачно+20°C56 %730 мм1.5 м/с5 %
    21:00Ясно и безоблачно+18°C55 %731 мм0.4 м/с5 %
  • 16июля
    Вторник
    +14°
    +27°
    Небольшая облачность
    ВремяПогодаТемператураВлажностьДавлениеВетер, м/сВероятность осадков
    00:00Небольшая облачность+16°C66 %731 мм0.9 м/с5 %
    03:00Облачно с прояснениями+15°C75 %731 мм0.3 м/с5 %
    06:00Небольшая облачность+15°C78 %731 мм0.7 м/с5 %
    09:00Практически безоблачно+20°C68 %733 мм1.3 м/с7 %
    12:00Облачно с прояснениями+25°C50 %733 мм2.1 м/с10 %
    15:00Небольшая облачность+27°C41 %731 мм1.7 м/с3 %
    18:00Небольшая облачность+20°C58 %731 мм0.8 м/с5 %
    21:00Практически безоблачно+17°C67 %732 мм1.1 м/с5 %
  • 17июля
    Среда
    +12°
    +27°
    Практически безоблачно
    ВремяПогодаТемператураВлажностьДавлениеВетер, м/сВероятность осадков
    00:00Ясно и безоблачно+16°C68 %732 мм1.3 м/с5 %
    03:00Ясно и безоблачно+15°C83 %731 мм1.6 м/с4 %
    06:00Практически безоблачно+15°C90 %732 мм0.9 м/с3 %
    09:00Облачно с прояснениями+21°C73 %733 мм2.5 м/с8 %
    12:00Практически безоблачно+25°C52 %732 мм2.0 м/с16 %
    15:00Практически безоблачно+27°C42 %730 мм0.9 м/с3 %
    18:00Практически безоблачно+20°C58 %730 мм0.8 м/с4 %
    21:00Ясно и безоблачно+17°C67 %730 мм0.9 м/с4 %
  • 18июля
    Четверг
    +12°
    +28°
    Ясно и безоблачно
    ВремяПогодаТемператураВлажностьДавлениеВетер, м/сВероятность осадков
    00:00Ясно и безоблачно+14°C74 %729 мм0.7 м/с5 %
    03:00Небольшая облачность+13°C84 %729 мм0.5 м/с5 %
    06:00Ясно и безоблачно+13°C86 %729 мм0.6 м/с5 %
    09:00Ясно и безоблачно+20°C67 %732 мм1.5 м/с5 %
    12:00Ясно и безоблачно+26°C45 %731 мм1.7 м/с3 %
    15:00Ясно и безоблачно+28°C35 %729 мм1.1 м/с5 %
    18:00Практически безоблачно+20°C55 %729 мм0.5 м/с5 %
    21:00Ясно и безоблачно+17°C64 %730 мм1.0 м/с5 %
Мы используем cookies
Соглашаюсь